sensor_id;sensor_type;location;lat;lon;timestamp;P1;durP1;ratioP1;P2;durP2;ratioP2
70406;SDS011;57821;52.202;0.154;2022-09-30T00:02:18;10.63;;;3.17;;
70406;SDS011;57821;52.202;0.154;2022-09-30T00:04:44;11.20;;;3.92;;
70406;SDS011;57821;52.202;0.154;2022-09-30T00:07:11;11.20;;;3.10;;
70406;SDS011;57821;52.202;0.154;2022-09-30T00:09:37;9.15;;;2.88;;
70406;SDS011;57821;52.202;0.154;2022-09-30T00:12:04;8.25;;;3.60;;
70406;SDS011;57821;52.202;0.154;2022-09-30T00:14:31;6.43;;;2.35;;
70406;SDS011;57821;52.202;0.154;2022-09-30T00:16:57;12.00;;;3.03;;
70406;SDS011;57821;52.202;0.154;2022-09-30T00:19:24;14.80;;;3.80;;
70406;SDS011;57821;52.202;0.154;2022-09-30T00:21:50;9.98;;;3.40;;
70406;SDS011;57821;52.202;0.154;2022-09-30T00:24:17;11.00;;;3.17;;
70406;SDS011;57821;52.202;0.154;2022-09-30T00:26:43;13.23;;;3.85;;
70406;SDS011;57821;52.202;0.154;2022-09-30T00:29:10;11.98;;;3.50;;
70406;SDS011;57821;52.202;0.154;2022-09-30T00:31:36;11.52;;;3.70;;
70406;SDS011;57821;52.202;0.154;2022-09-30T00:34:03;12.95;;;3.45;;
70406;SDS011;57821;52.202;0.154;2022-09-30T00:36:30;11.73;;;3.25;;
70406;SDS011;57821;52.202;0.154;2022-09-30T00:38:57;8.65;;;3.28;;
70406;SDS011;57821;52.202;0.154;2022-09-30T00:41:23;13.48;;;4.05;;
70406;SDS011;57821;52.202;0.154;2022-09-30T00:43:50;17.20;;;5.63;;
70406;SDS011;57821;52.202;0.154;2022-09-30T00:46:21;17.25;;;5.75;;
70406;SDS011;57821;52.202;0.154;2022-09-30T00:48:57;16.20;;;5.40;;
70406;SDS011;57821;52.202;0.154;2022-09-30T00:51:35;13.85;;;5.50;;
70406;SDS011;57821;52.202;0.154;2022-09-30T00:54:05;17.90;;;4.80;;
70406;SDS011;57821;52.202;0.154;2022-09-30T00:56:40;14.30;;;4.70;;
70406;SDS011;57821;52.202;0.154;2022-09-30T01:01:52;10.43;;;3.87;;
70406;SDS011;57821;52.202;0.154;2022-09-30T01:04:22;14.57;;;3.78;;
70406;SDS011;57821;52.202;0.154;2022-09-30T01:06:50;12.75;;;4.25;;
70406;SDS011;57821;52.202;0.154;2022-09-30T01:09:17;15.02;;;4.75;;
70406;SDS011;57821;52.202;0.154;2022-09-30T01:11:45;7.25;;;2.88;;
70406;SDS011;57821;52.202;0.154;2022-09-30T01:14:19;7.97;;;3.15;;
70406;SDS011;57821;52.202;0.154;2022-09-30T01:27:21;9.75;;;3.53;;
70406;SDS011;57821;52.202;0.154;2022-09-30T01:38:27;13.73;;;4.40;;
70406;SDS011;57821;52.202;0.154;2022-09-30T01:41:03;15.93;;;5.68;;
70406;SDS011;57821;52.202;0.154;2022-09-30T01:43:37;16.77;;;4.65;;
70406;SDS011;57821;52.202;0.154;2022-09-30T01:46:09;15.23;;;4.45;;
70406;SDS011;57821;52.202;0.154;2022-09-30T01:48:57;13.27;;;4.32;;
70406;SDS011;57821;52.202;0.154;2022-09-30T01:51:36;14.63;;;4.22;;
70406;SDS011;57821;52.202;0.154;2022-09-30T01:54:36;13.57;;;4.35;;
70406;SDS011;57821;52.202;0.154;2022-09-30T01:57:51;10.75;;;4.38;;
70406;SDS011;57821;52.202;0.154;2022-09-30T02:00:04;12.10;;;4.30;;
70406;SDS011;57821;52.202;0.154;2022-09-30T02:02:38;14.73;;;5.13;;
70406;SDS011;57821;52.202;0.154;2022-09-30T02:05:11;15.18;;;4.72;;
70406;SDS011;57821;52.202;0.154;2022-09-30T02:07:57;10.38;;;3.83;;
70406;SDS011;57821;52.202;0.154;2022-09-30T02:10:32;12.02;;;4.20;;
70406;SDS011;57821;52.202;0.154;2022-09-30T02:13:09;13.30;;;4.47;;
70406;SDS011;57821;52.202;0.154;2022-09-30T02:15:43;10.27;;;4.00;;
70406;SDS011;57821;52.202;0.154;2022-09-30T02:18:19;10.50;;;4.25;;
70406;SDS011;57821;52.202;0.154;2022-09-30T02:20:53;13.18;;;4.85;;
70406;SDS011;57821;52.202;0.154;2022-09-30T02:23:30;18.77;;;5.88;;
70406;SDS011;57821;52.202;0.154;2022-09-30T02:26:22;19.27;;;6.22;;
70406;SDS011;57821;52.202;0.154;2022-09-30T02:28:50;15.07;;;5.47;;
70406;SDS011;57821;52.202;0.154;2022-09-30T02:31:20;15.35;;;5.18;;
70406;SDS011;57821;52.202;0.154;2022-09-30T02:33:51;15.70;;;6.18;;
70406;SDS011;57821;52.202;0.154;2022-09-30T02:36:23;15.02;;;6.50;;
70406;SDS011;57821;52.202;0.154;2022-09-30T02:38:57;14.68;;;6.30;;
70406;SDS011;57821;52.202;0.154;2022-09-30T02:41:28;19.38;;;6.82;;
70406;SDS011;57821;52.202;0.154;2022-09-30T02:43:59;17.70;;;7.22;;
70406;SDS011;57821;52.202;0.154;2022-09-30T02:59:53;22.40;;;10.03;;
70406;SDS011;57821;52.202;0.154;2022-09-30T03:02:19;28.45;;;9.27;;
70406;SDS011;57821;52.202;0.154;2022-09-30T03:04:47;30.17;;;10.00;;
70406;SDS011;57821;52.202;0.154;2022-09-30T03:07:15;30.60;;;9.98;;
70406;SDS011;57821;52.202;0.154;2022-09-30T03:09:42;29.95;;;9.48;;
70406;SDS011;57821;52.202;0.154;2022-09-30T03:17:50;28.85;;;10.73;;
70406;SDS011;57821;52.202;0.154;2022-09-30T03:26:02;50.92;;;11.85;;
70406;SDS011;57821;52.202;0.154;2022-09-30T03:28:45;35.75;;;11.10;;
70406;SDS011;57821;52.202;0.154;2022-09-30T03:31:28;32.83;;;10.15;;
70406;SDS011;57821;52.202;0.154;2022-09-30T03:34:19;35.72;;;10.60;;
70406;SDS011;57821;52.202;0.154;2022-09-30T03:37:06;31.10;;;9.63;;
70406;SDS011;57821;52.202;0.154;2022-09-30T03:42:36;31.27;;;10.20;;
70406;SDS011;57821;52.202;0.154;2022-09-30T03:45:07;31.63;;;9.27;;
70406;SDS011;57821;52.202;0.154;2022-09-30T03:47:42;27.33;;;8.35;;
70406;SDS011;57821;52.202;0.154;2022-09-30T03:50:11;23.05;;;9.40;;
70406;SDS011;57821;52.202;0.154;2022-09-30T03:52:44;31.15;;;9.82;;
70406;SDS011;57821;52.202;0.154;2022-09-30T03:55:11;23.25;;;8.43;;
70406;SDS011;57821;52.202;0.154;2022-09-30T03:57:38;57.58;;;9.50;;
70406;SDS011;57821;52.202;0.154;2022-09-30T04:00:05;34.55;;;8.43;;
70406;SDS011;57821;52.202;0.154;2022-09-30T04:02:32;26.25;;;7.93;;
70406;SDS011;57821;52.202;0.154;2022-09-30T04:04:59;39.60;;;8.32;;
70406;SDS011;57821;52.202;0.154;2022-09-30T04:07:26;31.98;;;8.77;;
70406;SDS011;57821;52.202;0.154;2022-09-30T04:09:52;29.42;;;9.15;;
70406;SDS011;57821;52.202;0.154;2022-09-30T04:12:18;27.65;;;9.32;;
70406;SDS011;57821;52.202;0.154;2022-09-30T04:14:45;39.35;;;9.15;;
70406;SDS011;57821;52.202;0.154;2022-09-30T04:17:11;47.83;;;9.18;;
70406;SDS011;57821;52.202;0.154;2022-09-30T04:19:38;30.42;;;10.02;;
70406;SDS011;57821;52.202;0.154;2022-09-30T04:22:05;31.55;;;9.68;;
70406;SDS011;57821;52.202;0.154;2022-09-30T04:24:32;38.30;;;9.20;;
70406;SDS011;57821;52.202;0.154;2022-09-30T04:26:59;36.08;;;9.32;;
70406;SDS011;57821;52.202;0.154;2022-09-30T04:29:26;43.80;;;10.18;;
70406;SDS011;57821;52.202;0.154;2022-09-30T04:31:52;41.33;;;8.45;;
70406;SDS011;57821;52.202;0.154;2022-09-30T04:34:19;39.15;;;9.38;;
70406;SDS011;57821;52.202;0.154;2022-09-30T04:36:46;49.55;;;8.68;;
70406;SDS011;57821;52.202;0.154;2022-09-30T04:39:12;33.05;;;9.07;;
70406;SDS011;57821;52.202;0.154;2022-09-30T04:41:39;67.65;;;9.43;;
70406;SDS011;57821;52.202;0.154;2022-09-30T04:44:05;41.97;;;9.02;;
70406;SDS011;57821;52.202;0.154;2022-09-30T04:46:32;33.13;;;9.18;;
70406;SDS011;57821;52.202;0.154;2022-09-30T04:49:00;74.03;;;9.52;;
70406;SDS011;57821;52.202;0.154;2022-09-30T04:51:30;52.22;;;10.25;;
70406;SDS011;57821;52.202;0.154;2022-09-30T04:53:57;72.75;;;9.57;;
70406;SDS011;57821;52.202;0.154;2022-09-30T04:56:23;44.65;;;9.48;;
70406;SDS011;57821;52.202;0.154;2022-09-30T04:58:50;55.30;;;9.20;;
70406;SDS011;57821;52.202;0.154;2022-09-30T05:01:18;73.43;;;9.52;;
70406;SDS011;57821;52.202;0.154;2022-09-30T05:03:44;67.35;;;8.98;;
70406;SDS011;57821;52.202;0.154;2022-09-30T05:06:11;85.47;;;8.50;;
70406;SDS011;57821;52.202;0.154;2022-09-30T05:08:38;43.72;;;7.32;;
70406;SDS011;57821;52.202;0.154;2022-09-30T05:11:13;67.53;;;8.10;;
70406;SDS011;57821;52.202;0.154;2022-09-30T05:13:41;44.25;;;7.68;;
70406;SDS011;57821;52.202;0.154;2022-09-30T05:16:08;37.75;;;8.10;;
70406;SDS011;57821;52.202;0.154;2022-09-30T05:18:35;54.13;;;9.50;;
70406;SDS011;57821;52.202;0.154;2022-09-30T05:21:02;84.78;;;9.18;;
70406;SDS011;57821;52.202;0.154;2022-09-30T05:23:29;50.33;;;9.98;;
70406;SDS011;57821;52.202;0.154;2022-09-30T05:25:57;91.60;;;9.75;;
70406;SDS011;57821;52.202;0.154;2022-09-30T05:28:25;97.50;;;10.23;;
70406;SDS011;57821;52.202;0.154;2022-09-30T05:30:58;36.42;;;8.63;;
70406;SDS011;57821;52.202;0.154;2022-09-30T05:33:28;34.63;;;9.20;;
70406;SDS011;57821;52.202;0.154;2022-09-30T05:35:59;173.88;;;9.95;;
70406;SDS011;57821;52.202;0.154;2022-09-30T05:38:27;62.95;;;9.90;;
70406;SDS011;57821;52.202;0.154;2022-09-30T05:40:53;99.05;;;9.80;;
70406;SDS011;57821;52.202;0.154;2022-09-30T05:43:19;126.38;;;8.80;;
70406;SDS011;57821;52.202;0.154;2022-09-30T05:45:53;94.32;;;8.30;;
70406;SDS011;57821;52.202;0.154;2022-09-30T05:48:21;116.07;;;8.32;;
70406;SDS011;57821;52.202;0.154;2022-09-30T05:50:52;86.20;;;7.75;;
70406;SDS011;57821;52.202;0.154;2022-09-30T05:53:23;93.82;;;6.18;;
70406;SDS011;57821;52.202;0.154;2022-09-30T05:55:49;33.05;;;5.68;;
70406;SDS011;57821;52.202;0.154;2022-09-30T05:58:17;66.07;;;6.43;;
70406;SDS011;57821;52.202;0.154;2022-09-30T06:00:44;95.22;;;7.57;;
70406;SDS011;57821;52.202;0.154;2022-09-30T06:03:12;72.18;;;7.55;;
70406;SDS011;57821;52.202;0.154;2022-09-30T06:05:39;55.63;;;6.80;;
70406;SDS011;57821;52.202;0.154;2022-09-30T06:08:06;50.63;;;7.13;;
70406;SDS011;57821;52.202;0.154;2022-09-30T06:10:33;63.03;;;7.10;;
70406;SDS011;57821;52.202;0.154;2022-09-30T06:13:04;31.10;;;6.43;;
70406;SDS011;57821;52.202;0.154;2022-09-30T06:15:30;48.72;;;6.20;;
70406;SDS011;57821;52.202;0.154;2022-09-30T06:17:57;41.17;;;7.95;;
70406;SDS011;57821;52.202;0.154;2022-09-30T06:20:24;48.15;;;7.13;;
70406;SDS011;57821;52.202;0.154;2022-09-30T06:22:50;48.78;;;7.57;;
70406;SDS011;57821;52.202;0.154;2022-09-30T06:25:17;41.90;;;7.72;;
70406;SDS011;57821;52.202;0.154;2022-09-30T06:27:44;49.92;;;7.97;;
70406;SDS011;57821;52.202;0.154;2022-09-30T06:30:10;26.92;;;7.35;;
70406;SDS011;57821;52.202;0.154;2022-09-30T06:32:37;34.03;;;8.98;;
70406;SDS011;57821;52.202;0.154;2022-09-30T06:35:04;29.95;;;9.35;;
70406;SDS011;57821;52.202;0.154;2022-09-30T06:37:31;30.38;;;8.95;;
70406;SDS011;57821;52.202;0.154;2022-09-30T06:39:57;26.95;;;8.85;;
70406;SDS011;57821;52.202;0.154;2022-09-30T06:42:24;52.08;;;9.55;;
70406;SDS011;57821;52.202;0.154;2022-09-30T06:44:50;60.85;;;10.43;;
70406;SDS011;57821;52.202;0.154;2022-09-30T06:47:19;36.83;;;9.88;;
70406;SDS011;57821;52.202;0.154;2022-09-30T06:49:50;42.65;;;10.02;;
70406;SDS011;57821;52.202;0.154;2022-09-30T06:52:18;38.53;;;9.50;;
70406;SDS011;57821;52.202;0.154;2022-09-30T06:54:44;67.20;;;10.27;;
70406;SDS011;57821;52.202;0.154;2022-09-30T06:57:11;65.22;;;10.50;;
70406;SDS011;57821;52.202;0.154;2022-09-30T06:59:38;48.38;;;11.93;;
70406;SDS011;57821;52.202;0.154;2022-09-30T07:02:05;61.95;;;11.80;;
70406;SDS011;57821;52.202;0.154;2022-09-30T07:04:31;68.85;;;12.40;;
70406;SDS011;57821;52.202;0.154;2022-09-30T07:06:58;42.53;;;12.32;;
70406;SDS011;57821;52.202;0.154;2022-09-30T07:09:24;63.55;;;12.43;;
70406;SDS011;57821;52.202;0.154;2022-09-30T07:11:51;52.45;;;11.63;;
70406;SDS011;57821;52.202;0.154;2022-09-30T07:14:18;51.53;;;12.68;;
70406;SDS011;57821;52.202;0.154;2022-09-30T07:16:44;31.67;;;12.18;;
70406;SDS011;57821;52.202;0.154;2022-09-30T07:19:11;76.05;;;12.88;;
70406;SDS011;57821;52.202;0.154;2022-09-30T07:21:37;83.35;;;12.93;;
70406;SDS011;57821;52.202;0.154;2022-09-30T07:24:04;56.55;;;12.93;;
70406;SDS011;57821;52.202;0.154;2022-09-30T07:26:30;36.00;;;12.02;;
70406;SDS011;57821;52.202;0.154;2022-09-30T07:28:57;45.25;;;10.93;;
70406;SDS011;57821;52.202;0.154;2022-09-30T07:31:24;64.57;;;9.98;;
70406;SDS011;57821;52.202;0.154;2022-09-30T07:34:01;43.83;;;10.52;;
70406;SDS011;57821;52.202;0.154;2022-09-30T07:36:30;23.98;;;10.15;;
70406;SDS011;57821;52.202;0.154;2022-09-30T07:39:00;46.70;;;8.90;;
70406;SDS011;57821;52.202;0.154;2022-09-30T07:41:27;22.23;;;9.82;;
70406;SDS011;57821;52.202;0.154;2022-09-30T07:43:54;25.80;;;7.93;;
70406;SDS011;57821;52.202;0.154;2022-09-30T07:46:24;27.52;;;8.88;;
70406;SDS011;57821;52.202;0.154;2022-09-30T07:48:52;24.98;;;8.60;;
70406;SDS011;57821;52.202;0.154;2022-09-30T07:51:21;22.05;;;8.45;;
70406;SDS011;57821;52.202;0.154;2022-09-30T07:54:14;17.23;;;8.35;;
70406;SDS011;57821;52.202;0.154;2022-09-30T07:56:43;34.08;;;8.38;;
70406;SDS011;57821;52.202;0.154;2022-09-30T07:59:32;23.80;;;8.27;;
70406;SDS011;57821;52.202;0.154;2022-09-30T08:02:01;19.60;;;7.50;;
70406;SDS011;57821;52.202;0.154;2022-09-30T08:04:28;15.25;;;7.57;;
70406;SDS011;57821;52.202;0.154;2022-09-30T08:06:56;31.88;;;6.40;;
70406;SDS011;57821;52.202;0.154;2022-09-30T08:09:25;24.02;;;6.30;;
70406;SDS011;57821;52.202;0.154;2022-09-30T08:11:53;13.20;;;6.13;;
70406;SDS011;57821;52.202;0.154;2022-09-30T08:14:21;10.63;;;6.10;;
70406;SDS011;57821;52.202;0.154;2022-09-30T08:16:49;13.45;;;6.35;;
70406;SDS011;57821;52.202;0.154;2022-09-30T08:19:20;10.60;;;6.03;;
70406;SDS011;57821;52.202;0.154;2022-09-30T08:21:48;9.93;;;6.47;;
70406;SDS011;57821;52.202;0.154;2022-09-30T08:24:16;11.65;;;6.32;;
70406;SDS011;57821;52.202;0.154;2022-09-30T08:26:42;10.40;;;5.32;;
70406;SDS011;57821;52.202;0.154;2022-09-30T08:29:09;10.48;;;5.43;;
70406;SDS011;57821;52.202;0.154;2022-09-30T08:31:39;8.77;;;4.25;;
70406;SDS011;57821;52.202;0.154;2022-09-30T08:34:07;8.20;;;4.47;;
70406;SDS011;57821;52.202;0.154;2022-09-30T08:36:33;9.02;;;5.00;;
70406;SDS011;57821;52.202;0.154;2022-09-30T08:39:00;9.23;;;4.47;;
70406;SDS011;57821;52.202;0.154;2022-09-30T08:44:29;10.48;;;5.35;;
70406;SDS011;57821;52.202;0.154;2022-09-30T08:52:41;13.45;;;5.70;;
70406;SDS011;57821;52.202;0.154;2022-09-30T08:55:24;13.18;;;5.85;;
70406;SDS011;57821;52.202;0.154;2022-09-30T08:57:55;9.55;;;5.47;;
70406;SDS011;57821;52.202;0.154;2022-09-30T09:00:23;11.80;;;6.20;;
70406;SDS011;57821;52.202;0.154;2022-09-30T09:08:04;14.32;;;7.43;;
70406;SDS011;57821;52.202;0.154;2022-09-30T09:10:41;15.88;;;7.80;;
70406;SDS011;57821;52.202;0.154;2022-09-30T09:18:57;16.48;;;9.57;;
70406;SDS011;57821;52.202;0.154;2022-09-30T09:21:53;14.77;;;8.65;;
70406;SDS011;57821;52.202;0.154;2022-09-30T09:24:23;19.50;;;10.38;;
70406;SDS011;57821;52.202;0.154;2022-09-30T09:26:54;19.55;;;11.63;;
70406;SDS011;57821;52.202;0.154;2022-09-30T09:32:10;20.65;;;12.32;;
70406;SDS011;57821;52.202;0.154;2022-09-30T09:34:39;23.95;;;13.52;;
70406;SDS011;57821;52.202;0.154;2022-09-30T09:39:54;21.42;;;13.55;;
70406;SDS011;57821;52.202;0.154;2022-09-30T09:42:32;21.92;;;13.93;;
70406;SDS011;57821;52.202;0.154;2022-09-30T09:45:20;23.63;;;13.60;;
70406;SDS011;57821;52.202;0.154;2022-09-30T09:48:07;25.35;;;14.75;;
70406;SDS011;57821;52.202;0.154;2022-09-30T09:56:13;25.83;;;15.13;;
70406;SDS011;57821;52.202;0.154;2022-09-30T09:58:41;24.83;;;15.48;;
70406;SDS011;57821;52.202;0.154;2022-09-30T10:01:31;23.08;;;15.02;;
70406;SDS011;57821;52.202;0.154;2022-09-30T10:04:08;24.75;;;14.88;;
70406;SDS011;57821;52.202;0.154;2022-09-30T10:06:47;25.02;;;14.77;;
70406;SDS011;57821;52.202;0.154;2022-09-30T10:09:38;23.52;;;13.95;;
70406;SDS011;57821;52.202;0.154;2022-09-30T10:14:35;20.67;;;12.02;;
70406;SDS011;57821;52.202;0.154;2022-09-30T10:17:05;18.13;;;11.52;;
70406;SDS011;57821;52.202;0.154;2022-09-30T10:19:58;19.10;;;11.80;;
70406;SDS011;57821;52.202;0.154;2022-09-30T10:25:08;17.50;;;11.75;;
70406;SDS011;57821;52.202;0.154;2022-09-30T10:27:35;17.38;;;11.00;;
70406;SDS011;57821;52.202;0.154;2022-09-30T10:30:02;19.02;;;11.30;;
70406;SDS011;57821;52.202;0.154;2022-09-30T10:32:28;19.75;;;12.48;;
70406;SDS011;57821;52.202;0.154;2022-09-30T10:35:03;20.52;;;11.57;;
70406;SDS011;57821;52.202;0.154;2022-09-30T10:37:49;21.17;;;11.10;;
70406;SDS011;57821;52.202;0.154;2022-09-30T10:40:17;20.02;;;12.60;;
70406;SDS011;57821;52.202;0.154;2022-09-30T10:42:45;17.95;;;11.75;;
70406;SDS011;57821;52.202;0.154;2022-09-30T10:45:19;19.73;;;11.43;;
70406;SDS011;57821;52.202;0.154;2022-09-30T10:47:50;20.25;;;12.05;;
70406;SDS011;57821;52.202;0.154;2022-09-30T10:50:20;17.48;;;10.45;;
70406;SDS011;57821;52.202;0.154;2022-09-30T10:57:45;18.33;;;10.95;;
70406;SDS011;57821;52.202;0.154;2022-09-30T11:00:15;18.02;;;11.05;;
70406;SDS011;57821;52.202;0.154;2022-09-30T11:03:04;17.02;;;11.35;;
70406;SDS011;57821;52.202;0.154;2022-09-30T11:05:40;16.80;;;9.90;;
70406;SDS011;57821;52.202;0.154;2022-09-30T11:11:17;16.55;;;10.70;;
70406;SDS011;57821;52.202;0.154;2022-09-30T11:13:54;25.65;;;10.45;;
70406;SDS011;57821;52.202;0.154;2022-09-30T11:16:32;16.88;;;11.50;;
70406;SDS011;57821;52.202;0.154;2022-09-30T11:19:15;17.48;;;10.68;;
70406;SDS011;57821;52.202;0.154;2022-09-30T11:29:59;16.55;;;8.88;;
70406;SDS011;57821;52.202;0.154;2022-09-30T11:32:33;16.10;;;8.15;;
70406;SDS011;57821;52.202;0.154;2022-09-30T11:35:07;17.52;;;9.05;;
70406;SDS011;57821;52.202;0.154;2022-09-30T11:43:41;11.70;;;7.80;;
70406;SDS011;57821;52.202;0.154;2022-09-30T11:46:29;11.93;;;7.68;;
70406;SDS011;57821;52.202;0.154;2022-09-30T11:49:13;13.00;;;8.00;;
70406;SDS011;57821;52.202;0.154;2022-09-30T11:57:23;15.13;;;7.60;;
70406;SDS011;57821;52.202;0.154;2022-09-30T12:00:03;14.88;;;8.05;;
70406;SDS011;57821;52.202;0.154;2022-09-30T12:02:44;15.55;;;8.00;;
70406;SDS011;57821;52.202;0.154;2022-09-30T12:05:21;15.10;;;8.38;;
70406;SDS011;57821;52.202;0.154;2022-09-30T12:08:00;13.88;;;7.60;;
70406;SDS011;57821;52.202;0.154;2022-09-30T12:10:33;13.10;;;6.95;;
70406;SDS011;57821;52.202;0.154;2022-09-30T12:13:17;14.10;;;6.88;;
70406;SDS011;57821;52.202;0.154;2022-09-30T12:15:47;13.30;;;7.22;;
70406;SDS011;57821;52.202;0.154;2022-09-30T12:18:18;16.38;;;6.93;;
70406;SDS011;57821;52.202;0.154;2022-09-30T12:20:55;15.30;;;6.93;;
70406;SDS011;57821;52.202;0.154;2022-09-30T12:26:01;11.18;;;6.60;;
70406;SDS011;57821;52.202;0.154;2022-09-30T12:31:08;15.02;;;8.18;;
70406;SDS011;57821;52.202;0.154;2022-09-30T12:33:46;14.02;;;8.02;;
70406;SDS011;57821;52.202;0.154;2022-09-30T12:42:18;10.82;;;5.72;;
70406;SDS011;57821;52.202;0.154;2022-09-30T12:48:05;8.35;;;5.15;;
70406;SDS011;57821;52.202;0.154;2022-09-30T12:50:52;9.57;;;5.20;;
70406;SDS011;57821;52.202;0.154;2022-09-30T12:53:24;10.05;;;4.50;;
70406;SDS011;57821;52.202;0.154;2022-09-30T12:55:53;11.30;;;5.28;;
70406;SDS011;57821;52.202;0.154;2022-09-30T12:58:33;11.48;;;4.57;;
70406;SDS011;57821;52.202;0.154;2022-09-30T13:01:10;8.95;;;4.32;;
70406;SDS011;57821;52.202;0.154;2022-09-30T13:03:49;10.63;;;4.78;;
70406;SDS011;57821;52.202;0.154;2022-09-30T13:06:25;10.00;;;3.92;;
70406;SDS011;57821;52.202;0.154;2022-09-30T13:11:43;8.38;;;3.83;;
70406;SDS011;57821;52.202;0.154;2022-09-30T13:14:37;8.43;;;3.95;;
70406;SDS011;57821;52.202;0.154;2022-09-30T13:19:47;7.15;;;3.28;;
70406;SDS011;57821;52.202;0.154;2022-09-30T13:27:33;10.50;;;3.47;;
70406;SDS011;57821;52.202;0.154;2022-09-30T13:32:38;6.93;;;3.20;;
70406;SDS011;57821;52.202;0.154;2022-09-30T13:40:46;8.82;;;3.60;;
70406;SDS011;57821;52.202;0.154;2022-09-30T13:46:40;7.45;;;3.13;;
70406;SDS011;57821;52.202;0.154;2022-09-30T13:51:42;8.70;;;3.20;;
70406;SDS011;57821;52.202;0.154;2022-09-30T13:54:30;7.55;;;3.03;;
70406;SDS011;57821;52.202;0.154;2022-09-30T13:57:00;9.68;;;3.40;;
70406;SDS011;57821;52.202;0.154;2022-09-30T14:05:25;7.72;;;2.00;;
70406;SDS011;57821;52.202;0.154;2022-09-30T14:24:10;7.82;;;1.98;;
70406;SDS011;57821;52.202;0.154;2022-09-30T14:31:43;5.13;;;1.90;;
70406;SDS011;57821;52.202;0.154;2022-09-30T14:34:12;4.00;;;1.63;;
70406;SDS011;57821;52.202;0.154;2022-09-30T14:36:39;5.25;;;1.55;;
70406;SDS011;57821;52.202;0.154;2022-09-30T14:39:09;6.32;;;1.95;;
70406;SDS011;57821;52.202;0.154;2022-09-30T14:41:49;4.63;;;1.83;;
70406;SDS011;57821;52.202;0.154;2022-09-30T14:44:18;5.32;;;1.73;;
70406;SDS011;57821;52.202;0.154;2022-09-30T14:46:46;5.43;;;2.00;;
70406;SDS011;57821;52.202;0.154;2022-09-30T14:49:17;5.70;;;2.17;;
70406;SDS011;57821;52.202;0.154;2022-09-30T14:51:46;6.40;;;1.88;;
70406;SDS011;57821;52.202;0.154;2022-09-30T14:54:21;6.85;;;2.08;;
70406;SDS011;57821;52.202;0.154;2022-09-30T14:56:49;11.63;;;2.17;;
70406;SDS011;57821;52.202;0.154;2022-09-30T14:59:17;7.97;;;2.40;;
70406;SDS011;57821;52.202;0.154;2022-09-30T15:01:46;6.53;;;2.05;;
70406;SDS011;57821;52.202;0.154;2022-09-30T15:05:16;6.60;;;2.00;;
70406;SDS011;57821;52.202;0.154;2022-09-30T15:07:14;7.32;;;2.13;;
70406;SDS011;57821;52.202;0.154;2022-09-30T15:09:41;6.20;;;1.88;;
70406;SDS011;57821;52.202;0.154;2022-09-30T15:12:10;5.38;;;1.60;;
70406;SDS011;57821;52.202;0.154;2022-09-30T15:14:46;6.13;;;1.83;;
70406;SDS011;57821;52.202;0.154;2022-09-30T15:17:20;8.68;;;2.45;;
70406;SDS011;57821;52.202;0.154;2022-09-30T15:19:49;6.68;;;2.10;;
70406;SDS011;57821;52.202;0.154;2022-09-30T15:22:16;7.43;;;2.30;;
70406;SDS011;57821;52.202;0.154;2022-09-30T15:24:44;7.68;;;2.10;;
70406;SDS011;57821;52.202;0.154;2022-09-30T15:29:59;9.18;;;2.28;;
70406;SDS011;57821;52.202;0.154;2022-09-30T15:32:28;4.30;;;1.77;;
70406;SDS011;57821;52.202;0.154;2022-09-30T15:35:14;5.53;;;2.15;;
70406;SDS011;57821;52.202;0.154;2022-09-30T15:37:42;5.70;;;2.22;;
70406;SDS011;57821;52.202;0.154;2022-09-30T15:40:12;9.40;;;2.47;;
70406;SDS011;57821;52.202;0.154;2022-09-30T15:42:45;7.72;;;2.80;;
70406;SDS011;57821;52.202;0.154;2022-09-30T15:48:00;9.35;;;3.22;;
70406;SDS011;57821;52.202;0.154;2022-09-30T15:50:40;9.10;;;3.00;;
70406;SDS011;57821;52.202;0.154;2022-09-30T15:53:15;11.02;;;4.18;;
70406;SDS011;57821;52.202;0.154;2022-09-30T15:55:50;9.75;;;3.00;;
70406;SDS011;57821;52.202;0.154;2022-09-30T16:03:55;7.38;;;2.60;;
70406;SDS011;57821;52.202;0.154;2022-09-30T16:06:28;10.73;;;2.65;;
70406;SDS011;57821;52.202;0.154;2022-09-30T16:08:58;12.00;;;2.90;;
70406;SDS011;57821;52.202;0.154;2022-09-30T16:11:32;17.55;;;3.70;;
70406;SDS011;57821;52.202;0.154;2022-09-30T16:14:01;8.40;;;3.25;;
70406;SDS011;57821;52.202;0.154;2022-09-30T16:16:31;8.30;;;2.90;;
70406;SDS011;57821;52.202;0.154;2022-09-30T16:19:00;8.60;;;2.90;;
70406;SDS011;57821;52.202;0.154;2022-09-30T16:21:37;8.30;;;2.55;;
70406;SDS011;57821;52.202;0.154;2022-09-30T16:27:21;7.68;;;2.20;;
70406;SDS011;57821;52.202;0.154;2022-09-30T16:32:15;7.07;;;2.08;;
70406;SDS011;57821;52.202;0.154;2022-09-30T16:34:42;10.45;;;2.50;;
70406;SDS011;57821;52.202;0.154;2022-09-30T16:37:12;10.02;;;2.67;;
70406;SDS011;57821;52.202;0.154;2022-09-30T16:39:42;7.35;;;2.38;;
70406;SDS011;57821;52.202;0.154;2022-09-30T16:42:12;9.52;;;2.40;;
70406;SDS011;57821;52.202;0.154;2022-09-30T16:44:40;12.65;;;2.65;;
70406;SDS011;57821;52.202;0.154;2022-09-30T16:47:07;8.55;;;2.13;;
70406;SDS011;57821;52.202;0.154;2022-09-30T16:49:37;9.45;;;2.80;;
70406;SDS011;57821;52.202;0.154;2022-09-30T16:52:04;7.07;;;2.22;;
70406;SDS011;57821;52.202;0.154;2022-09-30T16:54:30;8.23;;;2.42;;
70406;SDS011;57821;52.202;0.154;2022-09-30T16:56:57;10.88;;;2.60;;
70406;SDS011;57821;52.202;0.154;2022-09-30T16:59:26;9.60;;;2.53;;
70406;SDS011;57821;52.202;0.154;2022-09-30T17:01:52;12.07;;;3.78;;
70406;SDS011;57821;52.202;0.154;2022-09-30T17:04:19;11.05;;;2.88;;
70406;SDS011;57821;52.202;0.154;2022-09-30T17:06:45;9.35;;;2.80;;
70406;SDS011;57821;52.202;0.154;2022-09-30T17:09:12;8.93;;;2.78;;
70406;SDS011;57821;52.202;0.154;2022-09-30T17:11:38;19.08;;;3.10;;
70406;SDS011;57821;52.202;0.154;2022-09-30T17:14:05;13.40;;;3.80;;
70406;SDS011;57821;52.202;0.154;2022-09-30T17:16:31;10.65;;;3.25;;
70406;SDS011;57821;52.202;0.154;2022-09-30T17:18:58;14.02;;;3.67;;
70406;SDS011;57821;52.202;0.154;2022-09-30T17:21:25;9.43;;;2.70;;
70406;SDS011;57821;52.202;0.154;2022-09-30T17:23:53;12.38;;;2.33;;
70406;SDS011;57821;52.202;0.154;2022-09-30T17:26:20;7.57;;;2.80;;
70406;SDS011;57821;52.202;0.154;2022-09-30T17:28:47;10.70;;;2.13;;
70406;SDS011;57821;52.202;0.154;2022-09-30T17:31:13;9.88;;;2.10;;
70406;SDS011;57821;52.202;0.154;2022-09-30T17:33:40;8.50;;;2.30;;
70406;SDS011;57821;52.202;0.154;2022-09-30T17:36:08;8.63;;;1.90;;
70406;SDS011;57821;52.202;0.154;2022-09-30T17:38:36;4.88;;;1.70;;
70406;SDS011;57821;52.202;0.154;2022-09-30T17:41:04;7.68;;;2.03;;
70406;SDS011;57821;52.202;0.154;2022-09-30T17:43:31;8.95;;;3.28;;
70406;SDS011;57821;52.202;0.154;2022-09-30T17:45:58;8.75;;;2.03;;
70406;SDS011;57821;52.202;0.154;2022-09-30T17:48:24;6.85;;;1.90;;
70406;SDS011;57821;52.202;0.154;2022-09-30T17:50:51;6.97;;;2.10;;
70406;SDS011;57821;52.202;0.154;2022-09-30T17:53:17;11.93;;;2.35;;
70406;SDS011;57821;52.202;0.154;2022-09-30T17:55:45;6.82;;;1.77;;
70406;SDS011;57821;52.202;0.154;2022-09-30T17:58:13;7.97;;;1.58;;
70406;SDS011;57821;52.202;0.154;2022-09-30T18:00:41;6.53;;;1.70;;
70406;SDS011;57821;52.202;0.154;2022-09-30T18:03:07;6.03;;;1.80;;
70406;SDS011;57821;52.202;0.154;2022-09-30T18:05:35;5.80;;;1.60;;
70406;SDS011;57821;52.202;0.154;2022-09-30T18:08:02;7.90;;;1.42;;
70406;SDS011;57821;52.202;0.154;2022-09-30T18:10:28;6.18;;;1.50;;
70406;SDS011;57821;52.202;0.154;2022-09-30T18:12:55;6.32;;;1.67;;
70406;SDS011;57821;52.202;0.154;2022-09-30T18:15:21;4.97;;;1.40;;